createdAt,value
2023-03-16T00:00:49.183Z,5.29
2023-03-16T00:01:53.560Z,5.33
2023-03-16T00:02:57.214Z,5.33
2023-03-16T00:04:00.901Z,5.30
2023-03-16T00:05:05.488Z,5.31
2023-03-16T00:06:09.435Z,5.35
2023-03-16T00:07:14.058Z,5.32
2023-03-16T00:08:19.463Z,5.28
2023-03-16T00:09:31.327Z,5.30
2023-03-16T00:10:38.511Z,5.20
2023-03-16T00:11:43.395Z,5.12
2023-03-16T00:12:46.990Z,5.17
2023-03-16T00:13:50.448Z,5.18
2023-03-16T00:14:54.482Z,5.10
2023-03-16T00:16:07.777Z,5.10
2023-03-16T00:17:20.677Z,5.13
2023-03-16T00:18:29.469Z,5.11
2023-03-16T00:19:35.299Z,5.04
2023-03-16T00:20:39.213Z,5.06
2023-03-16T00:21:43.078Z,5.04
2023-03-16T00:22:46.881Z,5.02
2023-03-16T00:23:51.034Z,5.03
2023-03-16T00:24:55.489Z,5.07
2023-03-16T00:26:03.133Z,5.01
2023-03-16T00:27:07.292Z,5.02
2023-03-16T00:28:14.118Z,4.91
2023-03-16T00:29:17.729Z,4.95
2023-03-16T00:30:23.070Z,4.88
2023-03-16T00:31:33.901Z,4.88
2023-03-16T00:32:38.770Z,4.75
2023-03-16T00:33:43.265Z,4.72
2023-03-16T00:34:48.289Z,4.69
2023-03-16T00:36:02.607Z,4.74
2023-03-16T00:37:06.809Z,4.58
2023-03-16T00:38:24.196Z,4.61
2023-03-16T00:39:36.449Z,4.59
2023-03-16T00:40:40.329Z,4.63
2023-03-16T00:41:44.536Z,4.62
2023-03-16T00:42:48.802Z,4.60
2023-03-16T00:43:54.513Z,4.59
2023-03-16T00:45:01.960Z,4.51
2023-03-16T00:46:11.728Z,4.45
2023-03-16T00:47:15.669Z,4.48
2023-03-16T00:48:21.946Z,4.51
2023-03-16T00:49:25.537Z,4.53
2023-03-16T00:50:29.882Z,4.52
2023-03-16T00:51:36.388Z,4.50
2023-03-16T00:52:42.335Z,4.46
2023-03-16T00:53:47.155Z,4.42
2023-03-16T00:54:54.221Z,4.44
2023-03-16T00:55:58.436Z,4.45
2023-03-16T00:57:02.807Z,4.43
2023-03-16T00:58:06.367Z,4.36
2023-03-16T00:59:13.337Z,4.34
2023-03-16T01:00:20.450Z,4.34
2023-03-16T01:01:24.493Z,4.36
2023-03-16T01:02:28.611Z,4.33
2023-03-16T01:03:33.447Z,4.33
2023-03-16T01:04:38.045Z,4.35
2023-03-16T01:05:43.343Z,4.35
2023-03-16T01:06:47.587Z,4.31
2023-03-16T01:07:52.346Z,4.28
2023-03-16T01:08:56.093Z,4.11
2023-03-16T01:09:59.792Z,4.11
2023-03-16T01:11:08.480Z,4.03
2023-03-16T01:12:20.298Z,4.07
2023-03-16T01:13:27.945Z,4.12
2023-03-16T01:14:33.299Z,4.13
2023-03-16T01:15:39.513Z,4.04
2023-03-16T01:16:46.089Z,4.04
2023-03-16T01:17:51.924Z,4.08
2023-03-16T01:18:59.348Z,4.09
2023-03-16T01:20:08.284Z,4.12
2023-03-16T01:21:15.639Z,4.14
2023-03-16T01:22:21.576Z,4.06
2023-03-16T01:23:25.280Z,4.03
2023-03-16T01:24:30.275Z,4.04
2023-03-16T01:25:33.921Z,4.03
2023-03-16T01:26:37.756Z,4.04
2023-03-16T01:27:43.266Z,4.01
2023-03-16T01:28:47.438Z,4.04
2023-03-16T01:29:51.890Z,4.04
2023-03-16T01:31:02.171Z,4.03
2023-03-16T01:32:07.283Z,4.07
2023-03-16T01:33:11.271Z,4.04
2023-03-16T01:34:18.288Z,4.03
2023-03-16T01:35:22.047Z,4.05
2023-03-16T01:36:26.392Z,4.08
2023-03-16T01:37:30.576Z,4.09
2023-03-16T01:38:35.111Z,4.03
2023-03-16T01:39:39.331Z,4.02
2023-03-16T01:40:43.213Z,4.04
2023-03-16T01:41:48.537Z,4.01
2023-03-16T01:43:05.088Z,4.00
2023-03-16T01:44:24.370Z,3.91
2023-03-16T01:46:05.119Z,3.89
2023-03-16T01:47:09.806Z,3.87
2023-03-16T01:48:14.850Z,3.80
2023-03-16T01:49:29.673Z,3.82
2023-03-16T01:50:33.995Z,3.76
2023-03-16T01:51:53.264Z,3.82
2023-03-16T01:53:01.704Z,3.85
2023-03-16T01:55:04.116Z,3.85
2023-03-16T01:56:12.946Z,3.86
2023-03-16T01:57:26.056Z,3.90
2023-03-16T01:58:32.407Z,3.92
2023-03-16T01:59:49.342Z,3.88
2023-03-16T02:00:54.137Z,3.88
2023-03-16T02:01:59.185Z,3.89
2023-03-16T02:03:14.069Z,3.88
2023-03-16T02:04:35.310Z,3.91
2023-03-16T02:05:50.117Z,3.91
2023-03-16T02:06:57.881Z,3.91
2023-03-16T02:08:03.555Z,3.93
2023-03-16T02:09:10.142Z,3.94
2023-03-16T02:10:17.430Z,3.97
2023-03-16T02:11:22.635Z,3.95
2023-03-16T02:12:27.173Z,3.93
2023-03-16T02:13:34.367Z,3.93
2023-03-16T02:14:38.037Z,3.90
2023-03-16T02:15:42.087Z,3.92
2023-03-16T02:16:47.713Z,3.90
2023-03-16T02:17:51.832Z,3.85
2023-03-16T02:18:55.694Z,3.86
2023-03-16T02:20:23.116Z,3.81
2023-03-16T02:21:59.111Z,3.78
2023-03-16T02:23:18.815Z,3.74
2023-03-16T02:24:22.918Z,3.72
2023-03-16T02:25:44.307Z,3.69
2023-03-16T02:27:04.509Z,3.62
2023-03-16T02:28:48.394Z,3.56
2023-03-16T02:29:58.029Z,3.48
2023-03-16T02:31:04.887Z,3.48
2023-03-16T02:32:10.246Z,3.49
2023-03-16T02:33:21.458Z,3.47
2023-03-16T02:34:27.260Z,3.40
2023-03-16T02:35:32.438Z,3.40
2023-03-16T02:36:39.651Z,3.38
2023-03-16T02:37:43.712Z,3.38
2023-03-16T02:38:47.326Z,3.33
2023-03-16T02:39:50.995Z,3.32
2023-03-16T02:41:20.047Z,3.31
2023-03-16T02:42:28.036Z,3.33
2023-03-16T02:43:38.260Z,3.32
2023-03-16T02:44:51.073Z,3.32
2023-03-16T02:46:00.337Z,3.36
2023-03-16T02:47:16.518Z,3.31
2023-03-16T02:48:49.774Z,3.27
2023-03-16T02:49:54.174Z,3.24
2023-03-16T02:51:02.614Z,3.22
2023-03-16T02:52:09.903Z,3.23
2023-03-16T02:53:15.313Z,3.23
2023-03-16T02:54:19.350Z,3.26
2023-03-16T02:55:23.263Z,3.24
2023-03-16T02:56:27.958Z,3.16
2023-03-16T02:57:35.325Z,3.19
2023-03-16T02:58:39.032Z,3.17
2023-03-16T02:59:42.915Z,3.14
2023-03-16T03:00:46.807Z,3.16
2023-03-16T03:01:50.366Z,3.14
2023-03-16T03:02:54.086Z,3.14
2023-03-16T03:03:58.533Z,3.10
2023-03-16T03:05:02.199Z,3.12
2023-03-16T03:06:06.752Z,3.13
2023-03-16T03:07:14.384Z,3.14
2023-03-16T03:08:20.460Z,3.15
2023-03-16T03:09:24.790Z,3.17
2023-03-16T03:10:29.049Z,3.17
2023-03-16T03:11:32.900Z,3.16
2023-03-16T03:12:36.631Z,3.20
2023-03-16T03:13:40.765Z,3.22
2023-03-16T03:14:54.832Z,3.22
2023-03-16T03:15:58.878Z,3.22
2023-03-16T03:17:04.332Z,3.21
2023-03-16T03:18:10.461Z,3.18
2023-03-16T03:19:14.382Z,3.18
2023-03-16T03:20:19.950Z,3.18
2023-03-16T03:21:24.516Z,3.20
2023-03-16T03:22:29.027Z,3.22
2023-03-16T03:23:35.205Z,3.23
2023-03-16T03:24:38.988Z,3.24
2023-03-16T03:25:43.316Z,3.23
2023-03-16T03:26:47.002Z,3.22
2023-03-16T03:27:55.266Z,3.20
2023-03-16T03:29:03.466Z,3.24
2023-03-16T03:30:09.036Z,3.21
2023-03-16T03:31:23.062Z,3.22
2023-03-16T03:32:26.863Z,3.24
2023-03-16T03:33:33.753Z,3.23
2023-03-16T03:34:38.352Z,3.23
2023-03-16T03:35:42.495Z,3.23
2023-03-16T03:36:46.155Z,3.22
2023-03-16T03:37:51.341Z,3.18
2023-03-16T03:38:55.131Z,3.15
2023-03-16T03:39:59.196Z,3.14
2023-03-16T03:41:03.280Z,3.14
2023-03-16T03:42:08.609Z,3.09
2023-03-16T03:43:12.515Z,3.08
2023-03-16T03:44:16.404Z,3.09
2023-03-16T03:45:20.740Z,3.11
2023-03-16T03:46:25.070Z,3.09
2023-03-16T03:47:29.215Z,3.11
2023-03-16T03:48:34.881Z,3.09
2023-03-16T03:49:38.618Z,3.09
2023-03-16T03:50:42.756Z,3.07
2023-03-16T03:51:47.097Z,3.08
2023-03-16T03:52:53.318Z,3.08
2023-03-16T03:53:57.921Z,3.09
2023-03-16T03:55:01.697Z,3.08
2023-03-16T03:56:05.813Z,3.08
2023-03-16T03:57:09.915Z,3.09
2023-03-16T03:58:14.138Z,3.06
2023-03-16T03:59:18.007Z,3.03
2023-03-16T04:00:22.161Z,3.01
2023-03-16T04:01:25.861Z,2.98
2023-03-16T04:02:29.754Z,2.97
2023-03-16T04:03:34.676Z,2.97
2023-03-16T04:04:38.744Z,2.95
2023-03-16T04:05:42.359Z,2.89
2023-03-16T04:06:46.672Z,2.85
2023-03-16T04:07:55.094Z,2.86
2023-03-16T04:08:59.028Z,2.83
2023-03-16T04:10:03.445Z,2.83
2023-03-16T04:11:07.606Z,2.84
2023-03-16T04:12:12.496Z,2.83
2023-03-16T04:13:17.229Z,2.78
2023-03-16T04:14:21.331Z,2.72
2023-03-16T04:15:26.266Z,2.70
2023-03-16T04:16:30.733Z,2.72
2023-03-16T04:17:34.637Z,2.70
2023-03-16T04:18:41.238Z,2.70
2023-03-16T04:19:45.389Z,2.70
2023-03-16T04:20:49.711Z,2.72
2023-03-16T04:21:54.514Z,2.71
2023-03-16T04:23:00.915Z,2.73
2023-03-16T04:24:05.487Z,2.74
2023-03-16T04:25:11.692Z,2.75
2023-03-16T04:26:16.460Z,2.76
2023-03-16T04:27:20.055Z,2.74
2023-03-16T04:28:26.372Z,2.72
2023-03-16T04:29:30.128Z,2.71
2023-03-16T04:30:35.291Z,2.71
2023-03-16T04:31:39.471Z,2.71
2023-03-16T04:32:43.789Z,2.70
2023-03-16T04:33:47.720Z,2.70
2023-03-16T04:34:56.885Z,2.71
2023-03-16T04:36:05.341Z,2.71
2023-03-16T04:37:09.279Z,2.73
2023-03-16T04:38:13.808Z,2.68
2023-03-16T04:39:17.431Z,2.70
2023-03-16T04:40:24.191Z,2.68
2023-03-16T04:41:28.051Z,2.67
2023-03-16T04:42:36.420Z,2.68
2023-03-16T04:43:40.256Z,2.69
2023-03-16T04:44:44.580Z,2.67
2023-03-16T04:45:48.812Z,2.66
2023-03-16T04:46:53.104Z,2.67
2023-03-16T04:47:57.191Z,2.68
2023-03-16T04:49:01.599Z,2.67
2023-03-16T04:50:09.576Z,2.67
2023-03-16T04:51:14.228Z,2.64
2023-03-16T04:52:18.068Z,2.52
2023-03-16T04:53:22.096Z,2.53
2023-03-16T04:54:26.427Z,2.54
2023-03-16T04:55:31.242Z,2.52
2023-03-16T04:56:35.704Z,2.51
2023-03-16T04:57:39.447Z,2.51
2023-03-16T04:58:51.349Z,2.53
2023-03-16T04:59:55.519Z,2.53
2023-03-16T05:00:59.318Z,2.53
2023-03-16T05:02:04.137Z,2.51
2023-03-16T05:03:12.943Z,2.52
2023-03-16T05:04:19.544Z,2.51
2023-03-16T05:05:23.980Z,2.51
2023-03-16T05:06:27.654Z,2.51
2023-03-16T05:07:31.625Z,2.47
2023-03-16T05:08:37.987Z,2.50
2023-03-16T05:09:42.036Z,2.49
2023-03-16T05:10:48.303Z,2.46
2023-03-16T05:11:52.083Z,2.46
2023-03-16T05:12:56.704Z,2.47
2023-03-16T05:14:02.172Z,2.51
2023-03-16T05:15:07.614Z,2.52
2023-03-16T05:16:11.854Z,2.49
2023-03-16T05:17:15.620Z,2.51
2023-03-16T05:18:20.539Z,2.51
2023-03-16T05:19:24.446Z,2.48
2023-03-16T05:20:28.623Z,2.52
2023-03-16T05:21:34.999Z,2.51
2023-03-16T05:22:43.323Z,2.49
2023-03-16T05:23:46.885Z,2.49
2023-03-16T05:24:50.929Z,2.51
2023-03-16T05:25:55.083Z,2.52
2023-03-16T05:26:58.777Z,2.54
2023-03-16T05:28:03.212Z,2.56
2023-03-16T05:29:07.853Z,2.55
2023-03-16T05:30:14.207Z,2.58
2023-03-16T05:31:19.810Z,2.55
2023-03-16T05:32:24.448Z,2.56
2023-03-16T05:33:28.176Z,2.58
2023-03-16T05:34:32.172Z,2.60
2023-03-16T05:35:38.485Z,2.60
2023-03-16T05:36:42.958Z,2.60
2023-03-16T05:37:47.491Z,2.61
2023-03-16T05:38:53.557Z,2.59
2023-03-16T05:39:58.720Z,2.58
2023-03-16T05:41:06.029Z,2.58
2023-03-16T05:42:10.809Z,2.59
2023-03-16T05:43:15.449Z,2.59
2023-03-16T05:44:19.625Z,2.59
2023-03-16T05:45:24.345Z,2.60
2023-03-16T05:46:28.130Z,2.61
2023-03-16T05:47:32.268Z,2.62
2023-03-16T05:48:35.956Z,2.63
2023-03-16T05:49:40.280Z,2.63
2023-03-16T05:50:44.041Z,2.66
2023-03-16T05:51:49.200Z,2.68
2023-03-16T05:52:53.251Z,2.70
2023-03-16T05:53:57.088Z,2.73
2023-03-16T05:55:06.224Z,2.76
2023-03-16T05:56:10.020Z,2.78
2023-03-16T05:57:14.213Z,2.79
2023-03-16T05:58:17.969Z,2.83
2023-03-16T05:59:21.764Z,2.79
2023-03-16T06:00:30.196Z,2.81
2023-03-16T07:13:04.330Z,12.97
2023-03-16T07:14:08.801Z,13.30
2023-03-16T07:15:13.555Z,13.90
2023-03-16T07:16:18.441Z,14.16
2023-03-16T07:17:22.279Z,14.28
2023-03-16T07:18:26.456Z,14.30
2023-03-16T07:19:30.274Z,14.43
2023-03-16T07:20:35.491Z,14.79
2023-03-16T07:21:42.052Z,14.97
2023-03-16T07:22:46.355Z,14.95
2023-03-16T07:23:51.786Z,15.40
2023-03-16T07:24:57.550Z,15.41
2023-03-16T07:26:02.324Z,15.92
2023-03-16T07:27:06.147Z,16.30
2023-03-16T07:28:09.915Z,16.76
2023-03-16T07:29:14.734Z,16.60
2023-03-16T07:30:18.646Z,16.96
2023-03-16T07:31:22.812Z,17.25
2023-03-16T07:32:26.646Z,17.58
2023-03-16T07:33:35.262Z,17.79
2023-03-16T07:34:39.390Z,18.16
2023-03-16T07:35:46.114Z,18.35
2023-03-16T07:36:52.778Z,18.08
2023-03-16T07:37:57.127Z,18.56
2023-03-16T07:39:01.630Z,18.48
2023-03-16T07:40:09.461Z,18.91
2023-03-16T07:41:14.259Z,19.05
2023-03-16T07:42:20.296Z,19.48
2023-03-16T07:43:24.750Z,19.17
2023-03-16T07:44:29.263Z,19.85
2023-03-16T07:45:33.064Z,20.11
2023-03-16T07:46:37.303Z,20.23
2023-03-16T07:47:41.804Z,20.59
2023-03-16T07:48:45.890Z,20.07
2023-03-16T07:49:49.557Z,20.67
2023-03-16T07:50:54.434Z,20.70
2023-03-16T07:51:58.519Z,21.06
2023-03-16T07:53:02.449Z,21.07
2023-03-16T07:54:06.532Z,21.34
2023-03-16T07:55:10.536Z,21.18
2023-03-16T07:56:14.237Z,21.14
2023-03-16T07:57:18.057Z,21.45
2023-03-16T07:58:21.816Z,21.60
2023-03-16T07:59:25.518Z,21.37
2023-03-16T08:00:29.544Z,21.68
2023-03-16T08:01:34.585Z,21.98
2023-03-16T08:02:39.082Z,21.70
2023-03-16T08:03:43.205Z,21.96
2023-03-16T08:04:47.267Z,22.06
2023-03-16T08:05:51.557Z,22.21
2023-03-16T08:07:00.537Z,21.86
2023-03-16T08:08:05.009Z,21.81
2023-03-16T08:09:10.004Z,22.04
2023-03-16T08:10:14.080Z,22.00
2023-03-16T08:11:23.940Z,21.84
2023-03-16T08:12:28.704Z,22.06
2023-03-16T08:13:46.553Z,22.16
2023-03-16T08:15:18.363Z,22.07
2023-03-16T08:16:32.260Z,21.64
2023-03-16T08:17:36.858Z,21.96
2023-03-16T08:18:41.903Z,22.12
2023-03-16T08:19:46.369Z,22.30
2023-03-16T08:20:50.888Z,22.30
2023-03-16T08:22:01.514Z,22.12
2023-03-16T08:23:09.125Z,21.73
2023-03-16T08:24:13.006Z,21.26
2023-03-16T08:25:17.058Z,21.69
2023-03-16T08:26:22.477Z,22.09
2023-03-16T08:27:29.960Z,22.11
2023-03-16T08:28:34.053Z,22.60
2023-03-16T08:29:38.429Z,22.40
2023-03-16T08:30:51.175Z,22.90
2023-03-16T08:31:56.642Z,22.79
2023-03-16T08:33:01.769Z,23.25
2023-03-16T08:34:06.635Z,23.62
2023-03-16T08:35:14.552Z,23.37
2023-03-16T08:36:21.279Z,23.81
2023-03-16T08:37:25.677Z,24.02
2023-03-16T08:38:29.578Z,24.23
2023-03-16T08:39:35.935Z,24.45
2023-03-16T08:40:48.722Z,24.60
2023-03-16T08:41:54.070Z,24.67
2023-03-16T08:42:57.751Z,24.96
2023-03-16T08:44:02.140Z,24.97
2023-03-16T08:45:13.409Z,24.94
2023-03-16T08:46:17.696Z,25.12
2023-03-16T08:47:25.915Z,25.14
2023-03-16T08:48:29.795Z,25.46
2023-03-16T08:49:35.494Z,25.09
2023-03-16T08:50:44.930Z,24.35
2023-03-16T08:51:49.820Z,24.74
2023-03-16T08:52:55.008Z,24.93
2023-03-16T08:54:01.342Z,24.32
2023-03-16T08:55:11.017Z,23.74
2023-03-16T08:56:19.265Z,23.03
2023-03-16T08:57:23.577Z,21.88
2023-03-16T08:58:27.938Z,21.27
2023-03-16T08:59:31.775Z,20.54
2023-03-16T09:00:36.890Z,19.85
2023-03-16T09:01:41.542Z,19.10
2023-03-16T09:02:45.769Z,18.18
2023-03-16T09:03:51.327Z,17.56
2023-03-16T09:04:56.449Z,17.01
2023-03-16T09:06:06.618Z,16.48
2023-03-16T09:07:11.666Z,15.74
2023-03-16T09:08:15.237Z,15.27
2023-03-16T09:09:19.663Z,14.99
2023-03-16T09:10:26.334Z,14.80
2023-03-16T09:11:34.204Z,14.18
2023-03-16T09:12:41.187Z,13.91
2023-03-16T09:13:46.627Z,13.88
2023-03-16T09:14:51.498Z,13.72
2023-03-16T09:15:58.220Z,13.59
2023-03-16T09:17:02.807Z,13.46
2023-03-16T09:18:08.641Z,13.15
2023-03-16T09:19:14.164Z,13.01
2023-03-16T09:20:26.399Z,12.74
2023-03-16T09:21:39.802Z,12.48
2023-03-16T09:22:43.772Z,12.32
2023-03-16T09:23:51.881Z,12.18
2023-03-16T09:24:56.292Z,12.06
2023-03-16T09:26:06.790Z,11.98
2023-03-16T09:27:10.817Z,11.59
2023-03-16T09:28:18.752Z,11.81
2023-03-16T09:29:25.564Z,12.00
2023-03-16T09:30:30.042Z,11.99
2023-03-16T09:31:35.999Z,11.98
2023-03-16T09:32:49.173Z,11.87
2023-03-16T09:33:53.768Z,11.89
2023-03-16T09:34:58.349Z,11.83
2023-03-16T09:36:03.918Z,11.89
2023-03-16T09:37:11.036Z,12.07
2023-03-16T09:38:15.097Z,12.12
2023-03-16T09:39:19.742Z,12.13
2023-03-16T09:40:28.847Z,12.25
2023-03-16T09:41:48.744Z,12.07
2023-03-16T09:43:09.886Z,12.03
2023-03-16T09:44:48.118Z,11.86
2023-03-16T09:46:38.782Z,11.72
2023-03-16T09:47:48.474Z,11.48
2023-03-16T09:48:57.999Z,11.45
2023-03-16T09:50:08.794Z,11.15
2023-03-16T09:52:12.936Z,10.82
2023-03-16T09:53:30.901Z,10.67
2023-03-16T09:54:46.392Z,10.35
2023-03-16T09:55:58.868Z,10.31
2023-03-16T09:57:04.755Z,10.21
2023-03-16T09:58:19.541Z,10.00
2023-03-16T09:59:25.196Z,9.91
2023-03-16T10:00:41.568Z,9.89
2023-03-16T10:02:39.090Z,9.72
2023-03-16T10:04:16.603Z,9.56
2023-03-16T10:05:25.295Z,9.57
2023-03-16T10:06:31.391Z,9.47
2023-03-16T10:08:13.011Z,9.19
2023-03-16T10:09:32.286Z,9.18
2023-03-16T10:11:02.963Z,9.17
2023-03-16T10:12:10.159Z,9.20
2023-03-16T10:13:38.046Z,9.22
2023-03-16T10:15:06.181Z,9.13
2023-03-16T10:16:18.559Z,9.01
2023-03-16T10:17:58.700Z,9.00
2023-03-16T10:19:38.501Z,9.05
2023-03-16T10:20:53.988Z,9.06
2023-03-16T10:22:10.309Z,9.05
2023-03-16T10:23:22.979Z,9.00
2023-03-16T10:25:02.912Z,8.93
2023-03-16T10:26:21.400Z,8.81
2023-03-16T10:27:38.963Z,8.78
2023-03-16T10:28:43.786Z,8.71
2023-03-16T10:29:47.839Z,8.82
2023-03-16T10:30:58.803Z,8.85
2023-03-16T10:32:19.424Z,8.96
2023-03-16T10:33:27.654Z,9.02
2023-03-16T10:34:34.199Z,9.01
2023-03-16T10:35:46.904Z,9.03
2023-03-16T10:36:53.383Z,9.13
2023-03-16T10:37:58.918Z,9.17
2023-03-16T10:39:14.666Z,9.21
2023-03-16T10:40:22.352Z,9.17
2023-03-16T10:41:40.614Z,9.26
2023-03-16T10:42:46.631Z,9.14
2023-03-16T10:44:15.740Z,9.10
2023-03-16T10:45:31.494Z,9.01
2023-03-16T10:46:59.199Z,8.99
2023-03-16T10:48:16.777Z,9.00
2023-03-16T10:49:36.375Z,9.01
2023-03-16T10:50:44.519Z,9.03
2023-03-16T10:51:49.380Z,8.95
2023-03-16T10:52:58.198Z,8.98
2023-03-16T10:54:17.309Z,9.08
2023-03-16T10:55:33.012Z,9.00
2023-03-16T10:56:37.326Z,9.02
2023-03-16T10:57:53.737Z,9.10
2023-03-16T10:58:57.309Z,9.09
2023-03-16T11:00:16.285Z,9.09
2023-03-16T11:01:27.000Z,9.14
2023-03-16T11:02:35.480Z,9.03
2023-03-16T11:03:41.811Z,9.08
2023-03-16T11:04:46.338Z,9.07
2023-03-16T11:06:02.848Z,8.99
2023-03-16T11:07:15.162Z,9.03
2023-03-16T11:08:31.656Z,9.08
2023-03-16T11:09:37.290Z,9.14
2023-03-16T11:10:55.511Z,9.12
2023-03-16T11:12:30.543Z,9.20
2023-03-16T11:13:38.885Z,9.16
2023-03-16T11:14:45.935Z,9.18
2023-03-16T11:16:00.412Z,9.24
2023-03-16T11:17:16.470Z,9.12
2023-03-16T11:18:36.071Z,9.05
2023-03-16T11:19:57.869Z,9.08
2023-03-16T11:21:32.156Z,8.90
2023-03-16T11:22:36.420Z,8.83
2023-03-16T11:23:51.529Z,8.81
2023-03-16T11:25:17.812Z,8.85
2023-03-16T11:26:33.614Z,8.74
2023-03-16T11:28:19.528Z,8.76
2023-03-16T11:29:59.947Z,8.80
2023-03-16T11:31:41.275Z,8.83
2023-03-16T11:32:54.489Z,8.94
2023-03-16T11:33:58.438Z,9.04
2023-03-16T11:35:13.407Z,9.05
2023-03-16T11:36:49.713Z,9.11
2023-03-16T11:38:49.283Z,9.10
2023-03-16T11:40:17.630Z,9.13
2023-03-16T11:42:09.932Z,9.17
2023-03-16T11:43:57.048Z,9.14
2023-03-16T11:45:35.477Z,9.24
2023-03-16T11:46:56.555Z,9.28
2023-03-16T11:48:36.779Z,9.36
2023-03-16T11:49:56.041Z,9.26
2023-03-16T11:51:07.872Z,9.30
2023-03-16T11:53:05.120Z,9.25
2023-03-16T11:54:33.856Z,9.15
2023-03-16T11:55:47.689Z,9.11
2023-03-16T11:57:23.880Z,9.03
2023-03-16T11:59:24.778Z,9.04
2023-03-16T12:00:40.784Z,8.98
2023-03-16T12:02:05.354Z,9.03
2023-03-16T12:03:33.439Z,9.14
2023-03-16T12:04:52.103Z,9.17
2023-03-16T12:06:26.185Z,9.23
2023-03-16T12:08:11.743Z,9.15
2023-03-16T12:09:52.098Z,9.18
2023-03-16T12:11:29.079Z,9.15
2023-03-16T12:13:15.345Z,9.22
2023-03-16T12:14:51.458Z,9.21
2023-03-16T12:16:03.128Z,9.25
2023-03-16T12:17:46.125Z,9.20
2023-03-16T12:19:14.930Z,9.15
2023-03-16T12:20:48.498Z,9.13
2023-03-16T12:22:22.904Z,9.22
2023-03-16T12:23:43.008Z,9.22
2023-03-16T12:24:48.148Z,9.13
2023-03-16T12:25:53.999Z,9.05
2023-03-16T12:26:59.792Z,9.06
2023-03-16T12:28:21.898Z,8.91
2023-03-16T12:29:37.704Z,9.03
2023-03-16T12:31:10.545Z,9.01
2023-03-16T12:32:28.740Z,9.10
2023-03-16T12:33:50.862Z,9.03
2023-03-16T12:35:14.859Z,9.06
2023-03-16T12:37:07.799Z,9.15
2023-03-16T12:38:43.427Z,9.15
2023-03-16T12:40:10.350Z,9.29
2023-03-16T12:41:50.353Z,9.26
2023-03-16T12:43:24.766Z,9.31
2023-03-16T12:44:48.170Z,9.35
2023-03-16T12:46:47.975Z,9.31
2023-03-16T12:48:47.751Z,9.27
2023-03-16T12:49:52.992Z,9.27
2023-03-16T12:51:07.806Z,9.36
2023-03-16T12:52:14.781Z,9.35
2023-03-16T12:53:44.819Z,9.40
2023-03-16T12:54:54.913Z,9.36
2023-03-16T12:56:10.116Z,9.36
2023-03-16T12:57:17.622Z,9.36
2023-03-16T12:58:26.289Z,9.29
2023-03-16T12:59:43.787Z,9.26
2023-03-16T13:00:58.584Z,9.21
2023-03-16T13:02:04.433Z,9.14
2023-03-16T13:03:29.755Z,9.22
2023-03-16T13:04:48.632Z,9.20
2023-03-16T13:06:01.037Z,9.26
2023-03-16T13:07:20.605Z,9.27
2023-03-16T13:08:28.015Z,9.26
2023-03-16T13:09:59.440Z,9.30
2023-03-16T13:11:10.296Z,9.17
2023-03-16T13:12:40.905Z,9.09
2023-03-16T13:14:01.842Z,9.07
2023-03-16T13:15:24.415Z,9.13
2023-03-16T13:16:36.741Z,9.22
2023-03-16T13:17:41.179Z,9.26
2023-03-16T13:18:49.226Z,9.27
2023-03-16T13:20:30.262Z,9.25
2023-03-16T13:21:41.750Z,9.21
2023-03-16T13:23:07.569Z,9.16
2023-03-16T13:24:45.402Z,9.10
2023-03-16T13:26:44.296Z,9.06
2023-03-16T13:27:55.935Z,9.14
2023-03-16T13:29:19.687Z,9.21
2023-03-16T13:30:35.663Z,9.02
2023-03-16T13:31:46.419Z,9.09
2023-03-16T13:33:01.656Z,9.14
2023-03-16T13:34:15.806Z,9.17
2023-03-16T13:35:34.063Z,9.15
2023-03-16T13:36:44.237Z,9.22
2023-03-16T13:37:50.426Z,9.24
2023-03-16T13:39:15.089Z,9.21
2023-03-16T13:40:25.931Z,9.24
2023-03-16T13:41:31.111Z,9.16
2023-03-16T13:42:35.259Z,9.21
2023-03-16T13:43:44.358Z,9.09
2023-03-16T13:44:48.650Z,9.11
2023-03-16T13:45:54.481Z,9.16
2023-03-16T13:47:05.511Z,9.19
2023-03-16T13:48:17.189Z,9.25
2023-03-16T13:49:21.256Z,9.30
2023-03-16T13:50:25.902Z,9.38
2023-03-16T13:51:38.794Z,9.45
2023-03-16T13:53:10.656Z,9.58
2023-03-16T13:54:28.448Z,9.68
2023-03-16T13:55:40.729Z,9.76
2023-03-16T13:56:44.987Z,9.81
2023-03-16T13:57:49.957Z,9.85
2023-03-16T13:58:59.189Z,9.88
2023-03-16T14:00:24.538Z,9.90
2023-03-16T14:01:32.389Z,9.82
2023-03-16T14:02:43.966Z,9.81
2023-03-16T14:03:48.527Z,9.80
2023-03-16T14:04:52.874Z,9.86
2023-03-16T14:05:59.225Z,9.94
2023-03-16T14:07:04.595Z,9.98
2023-03-16T14:08:24.553Z,10.01
2023-03-16T14:09:36.069Z,10.05
2023-03-16T14:10:40.411Z,10.03
2023-03-16T14:11:49.149Z,10.06
2023-03-16T14:13:02.515Z,10.03
2023-03-16T14:14:17.505Z,10.10
2023-03-16T14:15:28.235Z,9.99
2023-03-16T14:16:32.970Z,9.88
2023-03-16T14:17:37.716Z,9.86
2023-03-16T14:19:06.814Z,9.78
2023-03-16T14:20:26.351Z,9.74
2023-03-16T14:21:37.277Z,9.56
2023-03-16T14:22:44.202Z,9.51
2023-03-16T14:24:31.115Z,9.39
2023-03-16T14:25:36.269Z,9.46
2023-03-16T14:26:47.300Z,9.29
2023-03-16T14:28:19.039Z,9.19
2023-03-16T14:29:32.929Z,9.09
2023-03-16T14:30:37.331Z,9.08
2023-03-16T14:31:51.356Z,9.06
2023-03-16T14:33:07.337Z,9.08
2023-03-16T14:34:41.518Z,9.02
2023-03-16T14:35:54.085Z,8.99
2023-03-16T14:37:09.455Z,9.03
2023-03-16T14:38:46.799Z,8.97
2023-03-16T14:40:07.532Z,8.94
2023-03-16T14:41:26.620Z,8.96
2023-03-16T14:42:32.867Z,8.97
2023-03-16T14:43:58.074Z,9.04
2023-03-16T14:45:13.449Z,8.98
2023-03-16T14:46:29.669Z,8.97
2023-03-16T14:47:45.935Z,8.94
2023-03-16T14:48:50.764Z,8.85
2023-03-16T14:50:10.416Z,8.84
2023-03-16T14:51:16.839Z,8.84
2023-03-16T14:52:31.900Z,8.73
2023-03-16T14:53:38.096Z,8.76
2023-03-16T14:54:43.487Z,8.74
2023-03-16T14:55:48.785Z,8.72
2023-03-16T14:56:59.727Z,8.77
2023-03-16T14:58:04.100Z,8.76
2023-03-16T14:59:09.154Z,8.70
2023-03-16T15:00:17.077Z,8.77
2023-03-16T15:01:21.248Z,8.70
2023-03-16T15:02:33.793Z,8.66
2023-03-16T15:03:38.261Z,8.64
2023-03-16T15:04:43.175Z,8.72
2023-03-16T15:05:51.619Z,8.73
2023-03-16T15:06:55.904Z,8.74
2023-03-16T15:08:05.070Z,8.73
2023-03-16T15:09:25.912Z,8.62
2023-03-16T15:10:34.686Z,8.53
2023-03-16T15:11:39.116Z,8.58
2023-03-16T15:12:51.567Z,8.68
2023-03-16T15:14:05.338Z,8.74
2023-03-16T15:15:20.137Z,8.69
2023-03-16T15:16:25.504Z,8.75
2023-03-16T15:17:30.304Z,8.79
2023-03-16T15:18:35.237Z,8.78
2023-03-16T15:19:39.755Z,8.78
2023-03-16T15:20:45.625Z,8.79
2023-03-16T15:21:49.236Z,8.76
2023-03-16T15:23:02.240Z,8.69
2023-03-16T15:24:13.165Z,8.69
2023-03-16T15:25:46.238Z,8.68
2023-03-16T15:26:52.649Z,8.71
2023-03-16T15:27:59.443Z,8.65
2023-03-16T15:29:07.303Z,8.67
2023-03-16T15:30:21.244Z,8.68
2023-03-16T15:31:26.401Z,8.71
2023-03-16T15:32:31.035Z,8.73
2023-03-16T15:33:34.930Z,8.78
2023-03-16T15:34:38.877Z,8.82
2023-03-16T15:35:44.629Z,8.83
2023-03-16T15:36:49.259Z,8.91
2023-03-16T15:37:54.164Z,9.00
2023-03-16T15:38:58.667Z,9.07
2023-03-16T15:40:06.538Z,9.11
2023-03-16T15:41:12.336Z,9.16
2023-03-16T15:42:20.230Z,9.14
2023-03-16T15:43:29.167Z,9.16
2023-03-16T15:44:43.140Z,9.19
2023-03-16T15:45:48.045Z,9.27
2023-03-16T15:46:54.969Z,9.31
2023-03-16T15:47:59.739Z,9.38
2023-03-16T15:49:03.578Z,9.44
2023-03-16T15:50:09.538Z,9.49
2023-03-16T15:51:23.121Z,9.51
2023-03-16T15:52:37.397Z,9.43
2023-03-16T15:53:51.499Z,9.49
2023-03-16T15:54:57.525Z,9.51
2023-03-16T15:56:14.133Z,9.54
2023-03-16T15:57:18.822Z,9.51
2023-03-16T15:58:28.125Z,9.51
2023-03-16T15:59:36.682Z,9.54
2023-03-16T16:00:42.356Z,9.60
2023-03-16T16:01:49.113Z,9.61
2023-03-16T16:02:54.625Z,9.55
2023-03-16T16:03:59.330Z,9.59
2023-03-16T16:05:03.155Z,9.58
2023-03-16T16:06:12.280Z,9.56
2023-03-16T16:07:16.654Z,9.62
2023-03-16T16:08:24.480Z,9.56
2023-03-16T16:09:28.068Z,9.44
2023-03-16T16:10:32.523Z,9.43
2023-03-16T16:11:37.859Z,9.39
2023-03-16T16:12:42.347Z,9.31
2023-03-16T16:13:48.356Z,9.28
2023-03-16T16:14:52.061Z,9.24
2023-03-16T16:16:00.439Z,9.17
2023-03-16T16:17:10.647Z,9.02
2023-03-16T16:18:35.492Z,9.00
2023-03-16T16:19:48.204Z,9.02
2023-03-16T16:20:54.182Z,8.92
2023-03-16T16:21:57.984Z,8.89
2023-03-16T16:23:03.144Z,8.84
2023-03-16T16:24:08.647Z,8.82
2023-03-16T16:25:14.400Z,8.82
2023-03-16T16:26:58.755Z,8.83
2023-03-16T16:28:02.836Z,8.78
2023-03-16T16:29:24.638Z,8.71
2023-03-16T16:30:32.249Z,8.73
2023-03-16T16:31:36.119Z,8.73
2023-03-16T16:32:40.219Z,8.62
2023-03-16T16:33:47.092Z,8.50
2023-03-16T16:35:03.437Z,8.51
2023-03-16T16:36:20.417Z,8.50
2023-03-16T16:37:27.983Z,8.51
2023-03-16T16:38:32.621Z,8.45
2023-03-16T16:39:36.461Z,8.37
2023-03-16T16:40:46.287Z,8.46
2023-03-16T16:41:56.737Z,8.51
2023-03-16T16:43:06.383Z,8.44
2023-03-16T16:44:34.556Z,8.45
2023-03-16T16:45:40.161Z,8.45